Autopride — CQQE — position and weather

sailwx.info

Track history (hours):
 
Tides and Currents Weather Stations Pressure Air Temp Water Temp Dewpoint Dewpoint Depression Visibility Wind Speed Wind Dir Waves Ship Positions

Autopride

Last reported at 2015-May-19 00:33 UTC. Time now 2015-May-22 22:09 UTC.
Position N 50°40' W 000°60'.

Length 125 m; draft 4.9 m.

Type: Cargo ship. MMSI: 255801560.

Date/timePositionNaut miles runAvg speedWind from/ knotsBaromVisibWave heightAir tempDewpointWater temp
2015-May-19 00:33N 50°40' W 000°60'1514.5
2015-May-18 23:33N 50°49' W 001°18'7 7.0
2015-May-18 22:33N 50°54' W 001°26'0 0.0
2015-May-18 21:33N 50°54' W 001°26'0 0.0
2015-May-18 20:33N 50°54' W 001°26'0 0.0
2015-May-18 19:33N 50°54' W 001°26'0 0.0
2015-May-18 18:33N 50°54' W 001°26'0 0.0
2015-May-18 17:33N 50°54' W 001°26'0 0.0
2015-May-18 16:15N 50°54' W 001°26'0 0.0
2015-May-18 15:32N 50°54' W 001°26'0 0.0
2015-May-18 14:33N 50°54' W 001°26'0 0.0
2015-May-18 13:33N 50°54' W 001°26'3 3.1
2015-May-18 12:34N 50°52' W 001°22'1413.6
2015-May-18 11:33N 50°44' W 001°04'8 8.2
2015-May-18 10:33N 50°37' W 000°58'7 7.4
2015-May-18 09:32N 50°33' W 000°49'7 6.1
2015-May-18 08:26N 50°30' W 000°39'6 4.5
2015-May-18 07:09N 50°25' W 000°35'40 5.0
2015-May-17 23:13N 49°47' W 000°20'3 4.5
2015-May-17 22:33N 49°45' W 000°16'4 4.3
2015-May-17 21:33N 49°43' W 000°10'4 4.1
2015-May-17 20:33N 49°40' W 000°05'5 5.4
2015-May-17 19:33N 49°35' W 000°02'7 6.6
2015-May-17 18:34N 49°30' E 000°03'5 5.0
2015-May-17 17:33N 49°29' E 000°10'1 1.1
2015-May-17 16:33N 49°28' E 000°12'0 0.0
2015-May-17 15:32N 49°28' E 000°12'0 0.0
2015-May-17 14:32N 49°28' E 000°12'0 0.0
2015-May-17 13:32N 49°28' E 000°12'0 0.0
2015-May-17 12:32N 49°28' E 000°12'0 0.0
2015-May-17 11:33N 49°28' E 000°12'0 0.0
2015-May-17 10:33N 49°28' E 000°12'0 0.0
2015-May-17 09:33N 49°28' E 000°12'0 0.0
2015-May-17 08:33N 49°28' E 000°12'0 0.0
2015-May-17 07:33N 49°28' E 000°12'0 0.0
2015-May-17 06:33N 49°28' E 000°12'0 0.0
2015-May-17 05:33N 49°28' E 000°12'0 0.0
2015-May-17 04:33N 49°28' E 000°12'0 0.0
2015-May-17 03:33N 49°28' E 000°12'0 0.0
2015-May-17 02:33N 49°28' E 000°12'0 0.0
2015-May-17 01:33N 49°28' E 000°12'0 0.0
2015-May-17 00:33N 49°28' E 000°12'0 0.0
2015-May-16 23:33N 49°28' E 000°12'0 0.0
2015-May-16 22:33N 49°28' E 000°12'0 0.0
2015-May-16 21:33N 49°28' E 000°12'0 0.0
2015-May-16 20:33N 49°28' E 000°12'0 0.0
2015-May-16 19:33N 49°28' E 000°12'0 0.0
2015-May-16 18:33N 49°28' E 000°12'0 0.0
2015-May-16 17:33N 49°28' E 000°12'0 0.0
2015-May-16 16:33N 49°28' E 000°12'0 0.0
2015-May-16 15:33N 49°28' E 000°12'0 0.0
2015-May-16 14:33N 49°28' E 000°12'0 0.0
2015-May-16 13:33N 49°28' E 000°12'0 0.0
2015-May-16 12:33N 49°28' E 000°12'1 1.1
2015-May-16 11:33N 49°29' E 000°10'5 5.4
2015-May-16 10:34N 49°30' E 000°02'1615.9
2015-May-16 09:33N 49°41' W 000°15'5618.1
2015-May-16 06:27N 50°32' W 000°54'1516.9
2015-May-16 05:33N 50°45' W 001°06'1211.9
2015-May-16 04:33N 50°51' W 001°21'4 3.9
2015-May-16 03:33N 50°54' W 001°26'0 0.0
2015-May-16 02:31N 50°54' W 001°26'0 0.0
2015-May-16 01:31N 50°54' W 001°26'0 0.0
2015-May-16 00:34N 50°54' W 001°26'0 0.0
2015-May-15 23:34N 50°54' W 001°26'2 1.5
2015-May-15 22:33N 50°53' W 001°23'0 0.0
2015-May-15 21:33N 50°53' W 001°23'0 0.0
2015-May-15 20:33N 50°53' W 001°23'1 0.0
2015-May-15 05:32N 50°53' W 001°24'8 8.5
2015-May-15 04:33N 50°46' W 001°16'1211.6
2015-May-15 03:33N 50°40' W 000°60'8 8.2
2015-May-15 02:33N 50°33' W 001°06'1211.8
2015-May-15 01:33N 50°30' W 001°24'1211.6
2015-May-15 00:33N 50°28' W 001°41'4110.3
2015-May-14 20:33N 50°18' W 002°44'1110.6
2015-May-14 19:33N 50°15' W 003°00'1110.8
2015-May-14 18:34N 50°13' W 003°17'1111.2
2015-May-14 17:33N 50°10' W 003°34'84 6.4
2015-May-14 04:33N 50°30' W 005°41'1010.3
2015-May-14 03:33N 50°37' W 005°28'1010.2
2015-May-14 02:32N 50°43' W 005°16'9010.0
2015-May-13 17:28N 51°22' W 003°06'1718.1
2015-May-13 16:33N 51°30' W 002°43'0 0.3
2015-May-13 15:20N 51°30' W 002°42'0 0.0
2015-May-13 14:32N 51°30' W 002°42'0 0.0
2015-May-13 13:32N 51°30' W 002°42'0 0.0
2015-May-13 12:32N 51°30' W 002°42'0 0.0
2015-May-13 11:29N 51°30' W 002°42'0 0.0
2015-May-13 10:32N 51°30' W 002°42'0 0.0
2015-May-13 09:32N 51°30' W 002°42'0 0.0
2015-May-13 08:32N 51°30' W 002°42'0 0.0
2015-May-13 07:32N 51°30' W 002°42'0 0.0
2015-May-13 06:32N 51°30' W 002°42'0 0.0
2015-May-13 05:32N 51°30' W 002°42'0 0.0
2015-May-13 04:32N 51°30' W 002°42'0 0.0
2015-May-13 03:33N 51°30' W 002°42'1 0.8
2015-May-13 02:33N 51°30' W 002°43'1514.9
2015-May-13 01:33N 51°23' W 003°04'8913.7
2015-May-12 19:05N 50°44' W 005°11'713.8
2015-May-12 18:33N 50°39' W 005°19'1413.5
2015-May-12 17:33N 50°30' W 005°35'24114.6
2015-May-12 01:04N 46°31' W 006°15'11416.4
2015-May-11 18:08N 44°52' W 004°54'24 1.1
2015-May-10 20:12N 45°00' W 004°22'12412.7
2015-May-10 10:27N 46°59' W 005°13'269 9.6
2015-May-09 06:33N 50°32' W 001°03'1211.8
2015-May-09 05:34N 50°43' W 001°02'1514.5
2015-May-09 04:33N 50°51' W 001°21'3 2.6
2015-May-09 03:33N 50°53' W 001°23'0 0.0
2015-May-09 02:33N 50°53' W 001°23'0 0.4
2015-May-09 01:22N 50°53' W 001°24'  
Track history (hours):
 
Tides and Currents Weather Stations Pressure Air Temp Water Temp Dewpoint Dewpoint Depression Visibility Wind Speed Wind Dir Waves Ship Positions

Autopride

Last reported at 2015-May-19 00:33 UTC. Time now 2015-May-22 22:09 UTC.
Position N 50°40' W 000°60'.

Length 125 m; draft 4.9 m.

Type: Cargo ship. MMSI: 255801560.

Date/timePositionNaut miles runAvg speedWind from/ knotsBaromVisibWave heightAir tempDewpointWater temp
2015-May-19 00:33N 50°40' W 000°60'1514.5
2015-May-18 23:33N 50°49' W 001°18'7 7.0
2015-May-18 22:33N 50°54' W 001°26'0 0.0
2015-May-18 21:33N 50°54' W 001°26'0 0.0
2015-May-18 20:33N 50°54' W 001°26'0 0.0
2015-May-18 19:33N 50°54' W 001°26'0 0.0
2015-May-18 18:33N 50°54' W 001°26'0 0.0
2015-May-18 17:33N 50°54' W 001°26'0 0.0
2015-May-18 16:15N 50°54' W 001°26'0 0.0
2015-May-18 15:32N 50°54' W 001°26'0 0.0
2015-May-18 14:33N 50°54' W 001°26'0 0.0
2015-May-18 13:33N 50°54' W 001°26'3 3.1
2015-May-18 12:34N 50°52' W 001°22'1413.6
2015-May-18 11:33N 50°44' W 001°04'8 8.2
2015-May-18 10:33N 50°37' W 000°58'7 7.4
2015-May-18 09:32N 50°33' W 000°49'7 6.1
2015-May-18 08:26N 50°30' W 000°39'6 4.5
2015-May-18 07:09N 50°25' W 000°35'40 5.0
2015-May-17 23:13N 49°47' W 000°20'3 4.5
2015-May-17 22:33N 49°45' W 000°16'4 4.3
2015-May-17 21:33N 49°43' W 000°10'4 4.1
2015-May-17 20:33N 49°40' W 000°05'5 5.4
2015-May-17 19:33N 49°35' W 000°02'7 6.6
2015-May-17 18:34N 49°30' E 000°03'5 5.0
2015-May-17 17:33N 49°29' E 000°10'1 1.1
2015-May-17 16:33N 49°28' E 000°12'0 0.0
2015-May-17 15:32N 49°28' E 000°12'0 0.0
2015-May-17 14:32N 49°28' E 000°12'0 0.0
2015-May-17 13:32N 49°28' E 000°12'0 0.0
2015-May-17 12:32N 49°28' E 000°12'0 0.0
2015-May-17 11:33N 49°28' E 000°12'0 0.0
2015-May-17 10:33N 49°28' E 000°12'0 0.0
2015-May-17 09:33N 49°28' E 000°12'0 0.0
2015-May-17 08:33N 49°28' E 000°12'0 0.0
2015-May-17 07:33N 49°28' E 000°12'0 0.0
2015-May-17 06:33N 49°28' E 000°12'0 0.0
2015-May-17 05:33N 49°28' E 000°12'0 0.0
2015-May-17 04:33N 49°28' E 000°12'0 0.0
2015-May-17 03:33N 49°28' E 000°12'0 0.0
2015-May-17 02:33N 49°28' E 000°12'0 0.0
2015-May-17 01:33N 49°28' E 000°12'0 0.0
2015-May-17 00:33N 49°28' E 000°12'0 0.0
2015-May-16 23:33N 49°28' E 000°12'0 0.0
2015-May-16 22:33N 49°28' E 000°12'0 0.0
2015-May-16 21:33N 49°28' E 000°12'0 0.0
2015-May-16 20:33N 49°28' E 000°12'0 0.0
2015-May-16 19:33N 49°28' E 000°12'0 0.0
2015-May-16 18:33N 49°28' E 000°12'0 0.0
2015-May-16 17:33N 49°28' E 000°12'0 0.0
2015-May-16 16:33N 49°28' E 000°12'0 0.0
2015-May-16 15:33N 49°28' E 000°12'0 0.0
2015-May-16 14:33N 49°28' E 000°12'0 0.0
2015-May-16 13:33N 49°28' E 000°12'0 0.0
2015-May-16 12:33N 49°28' E 000°12'1 1.1
2015-May-16 11:33N 49°29' E 000°10'5 5.4
2015-May-16 10:34N 49°30' E 000°02'1615.9
2015-May-16 09:33N 49°41' W 000°15'5618.1
2015-May-16 06:27N 50°32' W 000°54'1516.9
2015-May-16 05:33N 50°45' W 001°06'1211.9
2015-May-16 04:33N 50°51' W 001°21'4 3.9
2015-May-16 03:33N 50°54' W 001°26'0 0.0
2015-May-16 02:31N 50°54' W 001°26'0 0.0
2015-May-16 01:31N 50°54' W 001°26'0 0.0
2015-May-16 00:34N 50°54' W 001°26'0 0.0
2015-May-15 23:34N 50°54' W 001°26'2 1.5
2015-May-15 22:33N 50°53' W 001°23'0 0.0
2015-May-15 21:33N 50°53' W 001°23'0 0.0
2015-May-15 20:33N 50°53' W 001°23'1 0.0
2015-May-15 05:32N 50°53' W 001°24'8 8.5
2015-May-15 04:33N 50°46' W 001°16'1211.6
2015-May-15 03:33N 50°40' W 000°60'8 8.2
2015-May-15 02:33N 50°33' W 001°06'1211.8
2015-May-15 01:33N 50°30' W 001°24'1211.6
2015-May-15 00:33N 50°28' W 001°41'4110.3
2015-May-14 20:33N 50°18' W 002°44'1110.6
2015-May-14 19:33N 50°15' W 003°00'1110.8
2015-May-14 18:34N 50°13' W 003°17'1111.2
2015-May-14 17:33N 50°10' W 003°34'84 6.4
2015-May-14 04:33N 50°30' W 005°41'1010.3
2015-May-14 03:33N 50°37' W 005°28'1010.2
2015-May-14 02:32N 50°43' W 005°16'9010.0
2015-May-13 17:28N 51°22' W 003°06'1718.1
2015-May-13 16:33N 51°30' W 002°43'0 0.3
2015-May-13 15:20N 51°30' W 002°42'0 0.0
2015-May-13 14:32N 51°30' W 002°42'0 0.0
2015-May-13 13:32N 51°30' W 002°42'0 0.0
2015-May-13 12:32N 51°30' W 002°42'0 0.0
2015-May-13 11:29N 51°30' W 002°42'0 0.0
2015-May-13 10:32N 51°30' W 002°42'0 0.0
2015-May-13 09:32N 51°30' W 002°42'0 0.0
2015-May-13 08:32N 51°30' W 002°42'0 0.0
2015-May-13 07:32N 51°30' W 002°42'0 0.0
2015-May-13 06:32N 51°30' W 002°42'0 0.0
2015-May-13 05:32N 51°30' W 002°42'0 0.0
2015-May-13 04:32N 51°30' W 002°42'0 0.0
2015-May-13 03:33N 51°30' W 002°42'1 0.8
2015-May-13 02:33N 51°30' W 002°43'1514.9
2015-May-13 01:33N 51°23' W 003°04'8913.7
2015-May-12 19:05N 50°44' W 005°11'713.8
2015-May-12 18:33N 50°39' W 005°19'1413.5
2015-May-12 17:33N 50°30' W 005°35'24114.6
2015-May-12 01:04N 46°31' W 006°15'11416.4
2015-May-11 18:08N 44°52' W 004°54'24 1.1
2015-May-10 20:12N 45°00' W 004°22'12412.7
2015-May-10 10:27N 46°59' W 005°13'269 9.6
2015-May-09 06:33N 50°32' W 001°03'1211.8
2015-May-09 05:34N 50°43' W 001°02'1514.5
2015-May-09 04:33N 50°51' W 001°21'3 2.6
2015-May-09 03:33N 50°53' W 001°23'0 0.0
2015-May-09 02:33N 50°53' W 001°23'0 0.4
2015-May-09 01:22N 50°53' W 001°24'  

Dump ship's entire track history